Time,TemperatureF,DewpointF,PressureIn,WindDirection,WindDirectionDegrees,WindSpeedMPH,WindSpeedGustMPH,Humidity,HourlyPrecipIn,Conditions,Clouds,dailyrainin,SolarRadiationWatts/m^2,SoftwareType,DateUTC
2013-02-14 00:05:00,48.7,47.0,30.27,NNE,13,0.0,6.0,94,0.00,,,0.00,0,weatherlink.com 1.10,2013-02-14 08:05:00,
2013-02-14 00:20:00,48.6,47.0,30.26,North,9,3.0,7.0,94,0.00,,,0.00,0,weatherlink.com 1.10,2013-02-14 08:20:00,
2013-02-14 00:36:00,48.5,47.0,30.26,NNE,17,2.0,5.0,94,0.00,,,0.00,0,weatherlink.com 1.10,2013-02-14 08:36:00,
2013-02-14 00:50:00,48.4,47.0,30.26,NNE,17,0.0,5.0,94,0.00,,,0.00,0,weatherlink.com 1.10,2013-02-14 08:50:00,
2013-02-14 01:05:00,48.2,47.0,30.26,NNE,17,0.0,4.0,94,0.00,,,0.00,0,weatherlink.com 1.10,2013-02-14 09:05:00,
2013-02-14 01:20:00,47.9,46.0,30.26,NNE,17,0.0,3.0,94,0.00,,,0.00,0,weatherlink.com 1.10,2013-02-14 09:20:00,
2013-02-14 01:35:00,47.6,46.0,30.26,NNE,17,0.0,1.0,94,0.00,,,0.00,0,weatherlink.com 1.10,2013-02-14 09:35:00,
2013-02-14 01:51:00,47.0,45.0,30.26,NNE,17,0.0,2.0,94,0.00,,,0.00,0,weatherlink.com 1.10,2013-02-14 09:51:00,
2013-02-14 02:06:00,47.0,46.0,30.26,NNE,20,4.0,6.0,95,0.00,,,0.00,0,weatherlink.com 1.10,2013-02-14 10:06:00,
2013-02-14 02:21:00,47.5,46.0,30.25,NNE,28,5.0,10.0,95,0.00,,,0.00,0,weatherlink.com 1.10,2013-02-14 10:21:00,
2013-02-14 02:36:00,47.4,46.0,30.25,North,11,5.0,9.0,95,0.00,,,0.00,0,weatherlink.com 1.10,2013-02-14 10:36:00,
2013-02-14 02:51:00,47.2,46.0,30.24,NNE,14,0.0,5.0,96,0.00,,,0.00,0,weatherlink.com 1.10,2013-02-14 10:51:00,
2013-02-14 03:06:00,47.1,46.0,30.23,NNE,18,2.0,6.0,95,0.00,,,0.00,0,weatherlink.com 1.10,2013-02-14 11:06:00,
2013-02-14 03:21:00,46.6,45.0,30.23,NNE,17,7.0,10.0,95,0.00,,,0.00,0,weatherlink.com 1.10,2013-02-14 11:21:00,
2013-02-14 03:36:00,46.3,45.0,30.23,NNE,33,5.0,13.0,95,0.00,,,0.00,0,weatherlink.com 1.10,2013-02-14 11:36:00,
2013-02-14 03:51:00,45.8,45.0,30.22,North,355,7.0,15.0,95,0.00,,,0.00,0,weatherlink.com 1.10,2013-02-14 11:51:00,
2013-02-14 04:06:00,45.1,44.0,30.22,NNE,26,7.0,11.0,95,0.00,,,0.00,0,weatherlink.com 1.10,2013-02-14 12:06:00,
2013-02-14 04:21:00,44.7,44.0,30.22,NNE,18,2.0,7.0,96,0.00,,,0.00,0,weatherlink.com 1.10,2013-02-14 12:21:00,
2013-02-14 04:36:00,44.5,43.0,30.22,NNE,23,11.0,11.0,95,0.00,,,0.00,0,weatherlink.com 1.10,2013-02-14 12:36:00,
2013-02-14 04:51:00,44.7,44.0,30.22,North,5,7.0,12.0,96,0.00,,,0.00,0,weatherlink.com 1.10,2013-02-14 12:51:00,
2013-02-14 05:06:00,44.8,44.0,30.22,North,5,8.0,13.0,96,0.00,,,0.00,0,weatherlink.com 1.10,2013-02-14 13:06:00,
2013-02-14 05:21:00,44.5,44.0,30.22,NNE,15,6.0,11.0,96,0.00,,,0.00,0,weatherlink.com 1.10,2013-02-14 13:21:00,
2013-02-14 05:36:00,44.4,43.0,30.22,NNE,19,3.0,7.0,96,0.00,,,0.00,0,weatherlink.com 1.10,2013-02-14 13:36:00,
2013-02-14 05:51:00,44.1,43.0,30.22,NNE,19,1.0,3.0,95,0.00,,,0.00,0,weatherlink.com 1.10,2013-02-14 13:51:00,
2013-02-14 06:06:00,43.5,42.0,30.22,NNE,19,2.0,4.0,95,0.00,,,0.00,0,weatherlink.com 1.10,2013-02-14 14:06:00,
2013-02-14 06:21:00,43.2,42.0,30.22,NNW,347,3.0,6.0,95,0.00,,,0.00,0,weatherlink.com 1.10,2013-02-14 14:21:00,
2013-02-14 06:36:00,43.2,42.0,30.22,North,350,1.0,4.0,95,0.00,,,0.00,0,weatherlink.com 1.10,2013-02-14 14:36:00,
2013-02-14 06:51:00,43.2,42.0,30.22,North,350,0.0,1.0,96,0.00,,,0.00,0,weatherlink.com 1.10,2013-02-14 14:51:00,
2013-02-14 07:06:00,43.7,43.0,30.22,North,350,0.0,0.0,96,0.00,,,0.00,9,weatherlink.com 1.10,2013-02-14 15:06:00,
2013-02-14 07:21:00,43.6,42.0,30.22,North,350,2.0,4.0,95,0.00,,,0.00,18,weatherlink.com 1.10,2013-02-14 15:21:00,
2013-02-14 07:36:00,44.7,44.0,30.22,North,350,0.0,4.0,96,0.00,,,0.00,72,weatherlink.com 1.10,2013-02-14 15:36:00,
2013-02-14 07:51:00,47.2,46.0,30.22,North,350,0.0,3.0,94,0.01,,,0.01,121,weatherlink.com 1.10,2013-02-14 15:51:00,
2013-02-14 08:06:00,49.9,47.0,30.23,North,351,1.0,2.0,89,0.01,,,0.01,174,weatherlink.com 1.10,2013-02-14 16:06:00,
2013-02-14 08:22:00,51.8,47.0,30.23,North,351,0.0,2.0,82,0.01,,,0.01,220,weatherlink.com 1.10,2013-02-14 16:22:00,
2013-02-14 08:37:00,54.8,46.0,30.24,North,351,0.0,2.0,73,0.01,,,0.01,265,weatherlink.com 1.10,2013-02-14 16:37:00,
2013-02-14 08:52:00,56.9,47.0,30.23,North,351,0.0,2.0,69,0.00,,,0.01,313,weatherlink.com 1.10,2013-02-14 16:52:00,
2013-02-14 09:07:00,60.0,48.0,30.23,North,355,2.0,2.0,64,0.00,,,0.01,359,weatherlink.com 1.10,2013-02-14 17:07:00,
2013-02-14 09:22:00,61.1,46.0,30.23,WSW,248,0.0,6.0,59,0.00,,,0.01,422,weatherlink.com 1.10,2013-02-14 17:22:00,
2013-02-14 09:37:00,63.0,46.0,30.23,NNW,331,3.0,6.0,55,0.00,,,0.01,462,weatherlink.com 1.10,2013-02-14 17:37:00,
2013-02-14 09:52:00,64.7,43.0,30.23,NNW,345,2.0,12.0,45,0.00,,,0.01,499,weatherlink.com 1.10,2013-02-14 17:52:00,
2013-02-14 10:07:00,64.6,43.0,30.23,South,189,0.0,5.0,45,0.00,,,0.01,538,weatherlink.com 1.10,2013-02-14 18:07:00,
2013-02-14 10:22:00,65.8,43.0,30.23,South,173,2.0,5.0,44,0.00,,,0.01,570,weatherlink.com 1.10,2013-02-14 18:22:00,
2013-02-14 10:37:00,66.7,43.0,30.22,South,175,3.0,5.0,43,0.00,,,0.01,598,weatherlink.com 1.10,2013-02-14 18:37:00,
2013-02-14 10:52:00,66.7,46.0,30.23,SSE,158,0.0,5.0,47,0.00,,,0.01,622,weatherlink.com 1.10,2013-02-14 18:52:00,
2013-02-14 11:07:00,67.8,43.0,30.23,NNW,333,0.0,10.0,41,0.00,,,0.01,645,weatherlink.com 1.10,2013-02-14 19:07:00,
2013-02-14 11:37:00,63.8,48.0,30.23,South,183,0.0,12.0,56,0.00,,,0.01,673,weatherlink.com 1.10,2013-02-14 19:37:00,
2013-02-14 11:52:00,61.8,47.0,30.22,SSW,199,1.0,5.0,59,0.00,,,0.01,686,weatherlink.com 1.10,2013-02-14 19:52:00,
2013-02-14 12:08:00,61.8,49.0,30.22,SSW,207,3.0,5.0,63,0.00,,,0.01,691,weatherlink.com 1.10,2013-02-14 20:08:00,
2013-02-14 12:23:00,61.5,49.0,30.23,SSW,205,1.0,5.0,64,0.00,,,0.01,693,weatherlink.com 1.10,2013-02-14 20:23:00,
2013-02-14 12:38:00,61.1,51.0,30.22,SSW,206,0.0,4.0,69,0.00,,,0.01,689,weatherlink.com 1.10,2013-02-14 20:38:00,
2013-02-14 12:53:00,60.7,50.0,30.22,SSW,206,3.0,4.0,69,0.00,,,0.01,687,weatherlink.com 1.10,2013-02-14 20:53:00,
2013-02-14 13:08:00,61.1,51.0,30.22,SSW,206,2.0,4.0,70,0.00,,,0.01,677,weatherlink.com 1.10,2013-02-14 21:08:00,
2013-02-14 13:23:00,61.1,51.0,30.21,SW,217,3.0,6.0,70,0.00,,,0.01,668,weatherlink.com 1.10,2013-02-14 21:23:00,
2013-02-14 13:38:00,62.2,51.0,30.20,WSW,243,0.0,6.0,66,0.00,,,0.01,647,weatherlink.com 1.10,2013-02-14 21:38:00,
2013-02-14 13:53:00,64.8,49.0,30.19,WSW,243,4.0,4.0,56,0.00,,,0.01,626,weatherlink.com 1.10,2013-02-14 21:53:00,
2013-02-14 14:08:00,63.8,50.0,30.19,West,261,0.0,5.0,62,0.00,,,0.01,601,weatherlink.com 1.10,2013-02-14 22:08:00,
2013-02-14 14:23:00,64.3,47.0,30.19,West,261,0.0,5.0,53,0.00,,,0.01,575,weatherlink.com 1.10,2013-02-14 22:23:00,
2013-02-14 14:38:00,64.2,49.0,30.18,West,261,0.0,5.0,59,0.00,,,0.01,543,weatherlink.com 1.10,2013-02-14 22:38:00,
2013-02-14 14:53:00,66.4,50.0,30.18,West,261,3.0,4.0,56,0.00,,,0.01,510,weatherlink.com 1.10,2013-02-14 22:53:00,
2013-02-14 15:08:00,68.4,50.0,30.18,NNW,333,0.0,4.0,53,0.00,,,0.01,471,weatherlink.com 1.10,2013-02-14 23:08:00,
2013-02-14 15:23:00,67.8,49.0,30.18,NNE,19,5.0,9.0,52,0.00,,,0.01,425,weatherlink.com 1.10,2013-02-14 23:23:00,
2013-02-14 15:38:00,67.1,47.0,30.17,NNE,29,1.0,7.0,49,0.00,,,0.01,385,weatherlink.com 1.10,2013-02-14 23:38:00,
2013-02-14 15:53:00,66.8,48.0,30.17,NNE,29,0.0,5.0,52,0.00,,,0.01,338,weatherlink.com 1.10,2013-02-14 23:53:00,
2013-02-14 16:08:00,66.5,49.0,30.17,North,355,0.0,4.0,53,0.00,,,0.01,294,weatherlink.com 1.10,2013-02-15 00:08:00,
2013-02-14 16:23:00,65.8,49.0,30.17,NNW,348,2.0,8.0,55,0.00,,,0.01,232,weatherlink.com 1.10,2013-02-15 00:23:00,
2013-02-14 16:38:00,64.0,50.0,30.17,NNE,13,3.0,7.0,60,0.00,,,0.01,171,weatherlink.com 1.10,2013-02-15 00:38:00,
2013-02-14 16:53:00,61.2,49.0,30.17,NNE,17,4.0,13.0,64,0.00,,,0.01,116,weatherlink.com 1.10,2013-02-15 00:53:00,
2013-02-14 17:08:00,60.0,49.0,30.17,NNE,22,7.0,11.0,67,0.00,,,0.01,65,weatherlink.com 1.10,2013-02-15 01:08:00,
2013-02-14 17:23:00,59.9,48.0,30.17,NNE,18,3.0,9.0,66,0.00,,,0.01,30,weatherlink.com 1.10,2013-02-15 01:23:00,
2013-02-14 17:38:00,59.4,46.0,30.17,NNE,32,5.0,6.0,62,0.00,,,0.01,12,weatherlink.com 1.10,2013-02-15 01:38:00,
2013-02-14 17:53:00,58.5,45.0,30.18,NNE,32,3.0,5.0,62,0.00,,,0.01,0,weatherlink.com 1.10,2013-02-15 01:53:00,
2013-02-14 18:08:00,57.0,44.0,30.18,NNE,32,5.0,5.0,63,0.00,,,0.01,0,weatherlink.com 1.10,2013-02-15 02:08:00,
2013-02-14 18:23:00,56.5,42.0,30.18,NNE,20,8.0,9.0,59,0.00,,,0.01,0,weatherlink.com 1.10,2013-02-15 02:23:00,
2013-02-14 18:38:00,56.7,45.0,30.18,NNE,17,7.0,9.0,64,0.00,,,0.01,0,weatherlink.com 1.10,2013-02-15 02:38:00,
2013-02-14 18:53:00,55.9,45.0,30.18,NNE,21,7.0,10.0,67,0.00,,,0.01,0,weatherlink.com 1.10,2013-02-15 02:53:00,
2013-02-14 19:08:00,55.7,46.0,30.19,NNE,24,7.0,9.0,69,0.00,,,0.01,0,weatherlink.com 1.10,2013-02-15 03:08:00,
2013-02-14 19:23:00,55.1,47.0,30.19,NNE,21,8.0,11.0,74,0.00,,,0.01,0,weatherlink.com 1.10,2013-02-15 03:23:00,
2013-02-14 19:38:00,54.8,47.0,30.20,NNE,22,4.0,11.0,76,0.00,,,0.01,0,weatherlink.com 1.10,2013-02-15 03:38:00,
2013-02-14 19:53:00,54.6,48.0,30.20,NNE,15,8.0,12.0,77,0.00,,,0.01,0,weatherlink.com 1.10,2013-02-15 03:53:00,
2013-02-14 20:08:00,54.2,47.0,30.20,NNE,17,0.0,4.0,77,0.00,,,0.01,0,weatherlink.com 1.10,2013-02-15 04:08:00,
2013-02-14 20:23:00,53.6,46.0,30.20,NNE,17,0.0,4.0,75,0.00,,,0.01,0,weatherlink.com 1.10,2013-02-15 04:23:00,
2013-02-14 20:38:00,53.5,45.0,30.21,NNE,17,0.0,3.0,74,0.00,,,0.01,0,weatherlink.com 1.10,2013-02-15 04:38:00,
2013-02-14 20:53:00,53.8,46.0,30.21,NNE,17,0.0,2.0,74,0.00,,,0.01,0,weatherlink.com 1.10,2013-02-15 04:53:00,
2013-02-14 21:08:00,53.8,46.0,30.21,NNE,17,0.0,2.0,74,0.00,,,0.01,0,weatherlink.com 1.10,2013-02-15 05:08:00,
2013-02-14 21:23:00,53.3,45.0,30.21,NNE,17,0.0,2.0,73,0.00,,,0.01,0,weatherlink.com 1.10,2013-02-15 05:23:00,
2013-02-14 21:38:00,53.2,45.0,30.22,NNE,17,0.0,3.0,74,0.00,,,0.01,0,weatherlink.com 1.10,2013-02-15 05:38:00,
2013-02-14 21:53:00,53.1,44.0,30.22,NNE,17,0.0,3.0,72,0.00,,,0.01,0,weatherlink.com 1.10,2013-02-15 05:53:00,
2013-02-14 22:08:00,53.7,44.0,30.22,NNE,17,0.0,3.0,70,0.00,,,0.01,0,weatherlink.com 1.10,2013-02-15 06:08:00,
2013-02-14 22:23:00,53.7,42.0,30.22,NNE,17,0.0,1.0,65,0.00,,,0.01,0,weatherlink.com 1.10,2013-02-15 06:23:00,
2013-02-14 22:38:00,53.4,42.0,30.22,NNE,17,0.0,1.0,66,0.00,,,0.01,0,weatherlink.com 1.10,2013-02-15 06:38:00,
2013-02-14 22:53:00,53.3,42.0,30.22,NNE,17,0.0,3.0,65,0.00,,,0.01,0,weatherlink.com 1.10,2013-02-15 06:53:00,
2013-02-14 23:08:00,54.2,42.0,30.22,SE,127,0.0,5.0,64,0.00,,,0.01,0,weatherlink.com 1.10,2013-02-15 07:08:00,
2013-02-14 23:23:00,54.7,42.0,30.22,SE,127,0.0,1.0,63,0.00,,,0.01,0,weatherlink.com 1.10,2013-02-15 07:23:00,
2013-02-14 23:38:00,54.3,43.0,30.22,SE,127,0.0,2.0,65,0.00,,,0.01,0,weatherlink.com 1.10,2013-02-15 07:38:00,
2013-02-14 23:53:00,53.5,43.0,30.22,SE,127,0.0,3.0,68,0.00,,,0.01,0,weatherlink.com 1.10,2013-02-15 07:53:00,